Time;durP1;ratioP1;P1;durP2;ratioP2;P2;SDS_P1;SDS_P2;PMS_P1;PMS_P2;Temp;Humidity;BMP_temperature;BMP_pressure;BME280_temperature;BME280_humidity;BME280_pressure;Samples;Min_cycle;Max_cycle;Signal;HPM_P1;HPM_P2
2023/01/15 00:00:00;;;;;;;;;;;8.60;88.50;;;;;;5014613;28;20008;-35
2023/01/15 00:02:25;;;;;;;;;;;8.50;88.10;;;;;;5014119;28;19914;-34
2023/01/15 00:04:51;;;;;;;;;;;8.50;88.10;;;;;;5013867;28;19960;-34
2023/01/15 00:07:16;;;;;;;;;;;8.50;88.00;;;;;;5014015;28;19924;-33
2023/01/15 00:09:42;;;;;;;;;;;8.50;88.00;;;;;;4996142;28;20040;-35
2023/01/15 00:12:07;;;;;;;;;;;8.50;88.30;;;;;;5013739;28;19913;-34
2023/01/15 00:14:33;;;;;;;;;;;8.60;88.20;;;;;;5013453;28;19963;-35
2023/01/15 00:16:58;;;;;;;;;;;8.50;88.10;;;;;;5013508;28;20021;-34
2023/01/15 00:19:24;;;;;;;;;;;8.60;88.30;;;;;;5013827;28;20044;-37
2023/01/15 00:21:51;;;;;;;;;;;8.60;88.30;;;;;;5013554;28;19914;-34
2023/01/15 00:29:45;;;;;;;;;;;8.60;88.20;;;;;;5013517;28;19968;-40
2023/01/15 00:32:10;;;;;;;;;;;8.60;88.20;;;;;;5013404;28;19917;-35
2023/01/15 00:34:36;;;;;;;;;;;8.60;87.90;;;;;;5013221;28;20377;-35
2023/01/15 00:37:01;;;;;;;;;;;8.60;88.00;;;;;;5013287;28;19922;-35
2023/01/15 00:39:27;;;;;;;;;;;8.60;88.10;;;;;;5013189;28;19913;-34
2023/01/15 00:41:53;;;;;;;;;;;8.60;87.80;;;;;;5013370;28;19924;-37
2023/01/15 00:44:20;;;;;;;;;;;8.60;87.80;;;;;;5012547;28;19986;-35
2023/01/15 00:46:45;;;;;;;;;;;8.60;87.90;;;;;;5013274;28;19957;-35
2023/01/15 00:49:11;;;;;;;;;;;8.50;88.00;;;;;;5012952;28;20003;-35
2023/01/15 00:51:36;;;;;;;;;;;8.50;87.60;;;;;;5012941;28;19918;-35
2023/01/15 00:54:02;;;;;;;;;;;8.50;87.60;;;;;;5012883;28;19921;-35
2023/01/15 00:56:28;;;;;;;;;;;8.50;87.40;;;;;;5012969;28;19940;-35
2023/01/15 00:58:53;;;;;;;;;;;8.50;87.40;;;;;;5012760;28;19913;-35
2023/01/15 01:01:19;;;;;;;;;;;8.50;87.30;;;;;;5013119;28;20284;-35
2023/01/15 01:03:51;;;;;;;;;;;8.50;87.40;;;;;;5012744;28;20000;-35
2023/01/15 01:06:17;;;;;;;;;;;8.50;87.40;;;;;;4995087;28;19964;-35
2023/01/15 01:08:44;;;;;;;;;;;8.50;87.10;;;;;;5012600;28;20258;-35
2023/01/15 01:11:11;;;;;;;;;;;8.50;87.00;;;;;;5012957;28;20357;-34
2023/01/15 01:13:37;;;;;;;;;;;8.40;86.90;;;;;;5012470;28;19964;-34
2023/01/15 01:16:03;;;;;;;;;;;8.40;87.00;;;;;;5012789;28;20376;-35
2023/01/15 01:18:29;;;;;;;;;;;8.40;86.90;;;;;;5012798;28;19989;-34
2023/01/15 01:20:55;;;;;;;;;;;8.40;86.50;;;;;;4994057;28;20388;-35
2023/01/15 01:23:22;;;;;;;;;;;8.40;86.40;;;;;;5012670;28;19913;-36
2023/01/15 01:25:47;;;;;;;;;;;8.40;86.10;;;;;;5012520;28;20392;-35
2023/01/15 01:28:13;;;;;;;;;;;8.40;86.00;;;;;;5012686;28;19913;-35
2023/01/15 01:30:38;;;;;;;;;;;8.40;86.10;;;;;;5012665;28;20661;-37
2023/01/15 01:33:04;;;;;;;;;;;8.30;85.30;;;;;;5012426;28;19913;-35
2023/01/15 01:35:29;;;;;;;;;;;8.30;85.70;;;;;;5012190;28;19972;-35
2023/01/15 01:37:55;;;;;;;;;;;8.30;85.60;;;;;;5012150;28;19920;-37
2023/01/15 01:40:21;;;;;;;;;;;8.30;85.40;;;;;;5011930;28;19975;-35
2023/01/15 01:42:46;;;;;;;;;;;8.30;85.10;;;;;;5012099;28;19934;-34
2023/01/15 01:45:23;;;;;;;;;;;8.30;85.50;;;;;;5012058;28;19913;-35
2023/01/15 01:47:49;;;;;;;;;;;8.30;85.60;;;;;;5012308;28;19927;-35
2023/01/15 01:50:15;;;;;;;;;;;8.30;85.80;;;;;;4994575;28;20327;-35
2023/01/15 01:52:40;;;;;;;;;;;8.20;85.60;;;;;;5012244;28;19914;-34
2023/01/15 01:55:06;;;;;;;;;;;8.30;85.50;;;;;;5011377;28;19922;-34
2023/01/15 01:57:32;;;;;;;;;;;8.20;85.70;;;;;;5012373;28;19920;-35
2023/01/15 01:59:58;;;;;;;;;;;8.20;85.50;;;;;;5012220;28;19914;-34
2023/01/15 02:02:24;;;;;;;;;;;8.20;85.30;;;;;;5012087;28;20309;-35
2023/01/15 02:04:50;;;;;;;;;;;8.20;85.50;;;;;;5012228;28;20017;-35
2023/01/15 02:07:16;;;;;;;;;;;8.20;85.60;;;;;;5012388;28;19913;-35
2023/01/15 02:09:41;;;;;;;;;;;8.20;85.70;;;;;;5012061;28;19988;-34
2023/01/15 02:12:22;;;;;;;;;;;8.20;85.70;;;;;;4994258;28;20008;-34
2023/01/15 02:15:06;;;;;;;;;;;8.20;85.20;;;;;;5011620;28;19922;-34
2023/01/15 02:17:37;;;;;;;;;;;8.20;84.80;;;;;;5011857;28;20353;-35
2023/01/15 02:20:16;;;;;;;;;;;8.10;85.10;;;;;;5011639;28;19914;-38
2023/01/15 02:22:47;;;;;;;;;;;8.10;84.80;;;;;;5011640;28;19956;-37
2023/01/15 02:25:18;;;;;;;;;;;8.10;84.90;;;;;;5011778;28;19928;-35
2023/01/15 02:27:50;;;;;;;;;;;8.10;85.00;;;;;;5011678;28;19914;-35
2023/01/15 02:30:21;;;;;;;;;;;8.10;85.10;;;;;;5011679;28;19964;-35
2023/01/15 02:32:52;;;;;;;;;;;8.10;85.10;;;;;;5011794;28;20009;-35
2023/01/15 02:35:22;;;;;;;;;;;8.10;85.20;;;;;;5011263;28;19945;-33
2023/01/15 02:37:49;;;;;;;;;;;8.00;84.40;;;;;;5011696;28;20258;-34
2023/01/15 02:40:17;;;;;;;;;;;8.00;84.80;;;;;;5011508;28;20272;-37
2023/01/15 02:42:45;;;;;;;;;;;8.00;85.10;;;;;;5011445;28;19963;-35
2023/01/15 02:45:11;;;;;;;;;;;8.00;85.00;;;;;;5011363;28;20335;-37
2023/01/15 02:47:39;;;;;;;;;;;8.00;85.10;;;;;;5011389;28;20300;-34
2023/01/15 02:50:07;;;;;;;;;;;7.90;84.70;;;;;;5011461;28;19920;-35
2023/01/15 02:52:35;;;;;;;;;;;7.90;85.00;;;;;;5011347;28;19976;-35
2023/01/15 02:55:12;;;;;;;;;;;7.90;85.00;;;;;;5011276;28;19921;-35
2023/01/15 02:57:40;;;;;;;;;;;7.90;85.20;;;;;;5011490;28;19914;-34
2023/01/15 03:00:07;;;;;;;;;;;7.80;85.00;;;;;;5011367;28;19914;-35
2023/01/15 03:02:35;;;;;;;;;;;7.90;85.20;;;;;;5011483;28;20365;-35
2023/01/15 03:05:05;;;;;;;;;;;7.90;85.20;;;;;;5011398;28;19952;-34
2023/01/15 03:07:35;;;;;;;;;;;7.80;84.90;;;;;;5014575;28;19913;-37
2023/01/15 03:10:01;;;;;;;;;;;7.80;85.00;;;;;;5015018;28;19914;-34
2023/01/15 03:13:01;;;;;;;;;;;7.80;84.90;;;;;;5014820;28;20049;-34
2023/01/15 03:18:10;;;;;;;;;;;7.90;84.70;;;;;;5014862;28;19920;-33
2023/01/15 03:20:37;;;;;;;;;;;7.80;84.80;;;;;;5014726;28;19917;-35
2023/01/15 03:23:07;;;;;;;;;;;7.80;84.70;;;;;;5014413;28;19920;-35
2023/01/15 03:25:36;;;;;;;;;;;7.80;84.80;;;;;;5014664;28;20273;-37
2023/01/15 03:28:03;;;;;;;;;;;7.80;85.00;;;;;;5014410;28;19932;-34
2023/01/15 03:30:28;;;;;;;;;;;7.80;84.90;;;;;;5014311;28;19910;-33
2023/01/15 03:32:54;;;;;;;;;;;7.70;84.50;;;;;;5013243;28;19916;-35
2023/01/15 03:35:37;;;;;;;;;;;7.80;84.90;;;;;;5013750;28;19914;-35
2023/01/15 03:38:03;;;;;;;;;;;7.70;84.90;;;;;;5014285;28;20000;-43
2023/01/15 03:40:29;;;;;;;;;;;7.70;84.80;;;;;;5014435;28;20401;-35
2023/01/15 03:45:41;;;;;;;;;;;7.70;84.50;;;;;;5014552;28;19917;-35
2023/01/15 03:48:06;;;;;;;;;;;7.70;84.50;;;;;;5013931;28;19920;-34
2023/01/15 03:50:42;;;;;;;;;;;7.70;84.70;;;;;;4996092;28;20300;-35
2023/01/15 03:53:08;;;;;;;;;;;7.70;84.70;;;;;;5014005;28;19909;-34
2023/01/15 03:55:42;;;;;;;;;;;7.70;84.70;;;;;;5013839;28;20265;-35
2023/01/15 03:58:13;;;;;;;;;;;7.70;84.70;;;;;;5013979;28;20285;-34
2023/01/15 04:00:43;;;;;;;;;;;7.60;84.80;;;;;;5013664;28;20177;-35
2023/01/15 04:03:09;;;;;;;;;;;7.60;84.80;;;;;;5013836;28;19917;-35
2023/01/15 04:05:35;;;;;;;;;;;7.60;84.80;;;;;;5013475;28;19910;-45
2023/01/15 04:08:02;;;;;;;;;;;7.60;84.70;;;;;;5013447;28;19952;-34
2023/01/15 04:10:27;;;;;;;;;;;7.60;84.80;;;;;;5013314;28;19925;-35
2023/01/15 04:12:53;;;;;;;;;;;7.60;84.70;;;;;;5013909;28;19913;-35
2023/01/15 04:15:18;;;;;;;;;;;7.60;84.40;;;;;;5013703;28;19967;-35
2023/01/15 04:17:44;;;;;;;;;;;7.70;84.60;;;;;;5013095;28;20387;-35
2023/01/15 04:20:10;;;;;;;;;;;7.60;84.70;;;;;;5013517;28;19910;-35
2023/01/15 04:22:35;;;;;;;;;;;7.60;84.60;;;;;;5013548;28;19909;-35
2023/01/15 04:25:04;;;;;;;;;;;7.60;84.40;;;;;;5013492;28;20003;-35
2023/01/15 04:27:30;;;;;;;;;;;7.60;84.60;;;;;;5013505;28;19910;-34
2023/01/15 04:29:56;;;;;;;;;;;7.60;84.50;;;;;;5013544;28;19932;-35
2023/01/15 04:32:21;;;;;;;;;;;7.60;84.60;;;;;;5013527;28;19916;-34
2023/01/15 04:34:47;;;;;;;;;;;7.50;84.50;;;;;;5013246;28;19917;-35
2023/01/15 04:37:13;;;;;;;;;;;7.50;84.50;;;;;;5012956;28;20270;-34
2023/01/15 04:39:38;;;;;;;;;;;7.50;84.30;;;;;;5013131;28;19915;-34
2023/01/15 04:44:48;;;;;;;;;;;7.50;84.50;;;;;;5013372;28;19959;-35
2023/01/15 04:47:13;;;;;;;;;;;7.50;84.40;;;;;;5013252;28;19909;-34
2023/01/15 04:49:38;;;;;;;;;;;7.50;84.40;;;;;;5012945;28;20429;-35
2023/01/15 04:52:04;;;;;;;;;;;7.50;84.30;;;;;;5013187;28;19910;-35
2023/01/15 04:54:30;;;;;;;;;;;7.50;83.90;;;;;;5012962;28;19936;-33
2023/01/15 04:56:55;;;;;;;;;;;7.40;83.90;;;;;;5012757;28;19910;-35
2023/01/15 04:59:22;;;;;;;;;;;7.40;83.90;;;;;;5012533;28;20492;-35
2023/01/15 05:01:48;;;;;;;;;;;7.40;83.90;;;;;;5012923;28;19965;-34
2023/01/15 05:04:13;;;;;;;;;;;7.40;84.00;;;;;;4995275;28;20308;-35
2023/01/15 05:06:39;;;;;;;;;;;7.30;84.00;;;;;;5012540;28;19944;-35
2023/01/15 05:09:05;;;;;;;;;;;7.40;84.20;;;;;;5012520;28;19909;-37
2023/01/15 05:11:30;;;;;;;;;;;7.40;84.20;;;;;;5012379;28;19909;-35
2023/01/15 05:13:56;;;;;;;;;;;7.40;84.10;;;;;;5012323;28;19909;-36
2023/01/15 05:16:23;;;;;;;;;;;7.40;84.00;;;;;;5012167;28;19914;-35
2023/01/15 05:18:49;;;;;;;;;;;7.40;84.00;;;;;;5012369;28;20327;-37
2023/01/15 05:21:17;;;;;;;;;;;7.40;83.90;;;;;;5012228;28;19959;-35
2023/01/15 05:23:43;;;;;;;;;;;7.40;83.90;;;;;;5012303;28;20618;-35
2023/01/15 05:26:08;;;;;;;;;;;7.40;83.30;;;;;;5012101;28;19948;-35
2023/01/15 05:28:34;;;;;;;;;;;7.40;83.30;;;;;;5012275;28;19921;-36
2023/01/15 05:31:05;;;;;;;;;;;7.40;83.40;;;;;;5011969;28;20298;-34
2023/01/15 05:33:30;;;;;;;;;;;7.40;83.50;;;;;;5012173;28;20345;-34
2023/01/15 05:35:59;;;;;;;;;;;7.40;83.60;;;;;;5011733;28;19922;-35
2023/01/15 05:38:25;;;;;;;;;;;7.40;83.20;;;;;;5012054;28;20195;-36
2023/01/15 05:40:50;;;;;;;;;;;7.40;83.20;;;;;;5011988;28;19909;-35
2023/01/15 05:43:16;;;;;;;;;;;7.30;83.40;;;;;;5012147;28;20404;-35
2023/01/15 05:45:41;;;;;;;;;;;7.30;83.50;;;;;;5012113;28;19917;-35
2023/01/15 05:48:07;;;;;;;;;;;7.30;83.60;;;;;;5012064;28;20163;-35
2023/01/15 05:50:32;;;;;;;;;;;7.40;83.50;;;;;;5012158;28;20376;-35
2023/01/15 05:52:58;;;;;;;;;;;7.30;83.10;;;;;;4994385;28;19909;-34
2023/01/15 05:55:23;;;;;;;;;;;7.30;83.30;;;;;;5011965;28;20004;-35
2023/01/15 05:57:49;;;;;;;;;;;7.30;83.20;;;;;;5011731;28;19985;-35
2023/01/15 06:00:14;;;;;;;;;;;7.30;83.10;;;;;;5011714;28;19968;-35
2023/01/15 06:02:40;;;;;;;;;;;7.20;83.20;;;;;;5011630;28;19925;-35
2023/01/15 06:05:05;;;;;;;;;;;7.20;83.10;;;;;;5011908;28;19909;-36
2023/01/15 06:07:31;;;;;;;;;;;7.20;83.10;;;;;;4993996;28;20116;-33
2023/01/15 06:09:56;;;;;;;;;;;7.20;83.30;;;;;;5011547;28;19909;-35
2023/01/15 06:12:22;;;;;;;;;;;7.20;83.50;;;;;;4994135;28;19909;-35
2023/01/15 06:14:47;;;;;;;;;;;7.30;83.60;;;;;;5011571;28;20000;-37
2023/01/15 06:17:13;;;;;;;;;;;7.20;83.60;;;;;;5011514;28;19910;-35
2023/01/15 06:19:39;;;;;;;;;;;7.20;83.50;;;;;;5011731;28;19910;-34
2023/01/15 06:22:04;;;;;;;;;;;7.20;83.50;;;;;;5011479;28;20285;-35
2023/01/15 06:24:30;;;;;;;;;;;7.20;83.30;;;;;;5011493;28;19965;-34
2023/01/15 06:26:55;;;;;;;;;;;7.20;82.90;;;;;;5011491;28;19917;-34
2023/01/15 06:29:21;;;;;;;;;;;7.20;83.10;;;;;;4993726;28;20401;-35
2023/01/15 06:31:48;;;;;;;;;;;7.10;82.90;;;;;;5011222;28;19913;-35
2023/01/15 06:34:13;;;;;;;;;;;7.10;82.90;;;;;;5011963;28;20284;-34
2023/01/15 06:36:39;;;;;;;;;;;7.10;82.90;;;;;;5011538;28;19921;-34
2023/01/15 06:39:04;;;;;;;;;;;7.00;82.80;;;;;;5011815;28;20333;-34
2023/01/15 06:47:20;;;;;;;;;;;6.90;82.40;;;;;;5015658;28;19916;-35
2023/01/15 06:49:47;;;;;;;;;;;7.00;82.80;;;;;;5015582;28;20254;-36
2023/01/15 06:52:12;;;;;;;;;;;7.00;82.70;;;;;;5015295;28;19916;-36
2023/01/15 06:54:38;;;;;;;;;;;7.00;82.70;;;;;;5015413;28;19909;-36
2023/01/15 06:57:04;;;;;;;;;;;7.00;82.30;;;;;;5015449;28;20388;-34
2023/01/15 06:59:29;;;;;;;;;;;7.10;82.40;;;;;;5015038;28;20419;-34
2023/01/15 07:01:55;;;;;;;;;;;7.10;82.00;;;;;;5014891;28;19916;-35
2023/01/15 07:04:20;;;;;;;;;;;7.10;82.00;;;;;;5014921;28;19910;-33
2023/01/15 07:06:46;;;;;;;;;;;7.20;81.60;;;;;;5015009;28;20373;-36
2023/01/15 07:09:12;;;;;;;;;;;7.20;81.50;;;;;;5014919;28;19964;-35
2023/01/15 07:11:48;;;;;;;;;;;7.20;81.70;;;;;;5015182;28;20357;-35
2023/01/15 07:14:31;;;;;;;;;;;7.20;81.10;;;;;;5014874;28;19944;-34
2023/01/15 07:16:58;;;;;;;;;;;7.10;80.80;;;;;;5014897;28;19913;-35
2023/01/15 07:19:23;;;;;;;;;;;7.10;81.10;;;;;;5015064;28;20357;-34
2023/01/15 07:21:49;;;;;;;;;;;7.00;81.40;;;;;;5015166;28;19964;-36
2023/01/15 07:24:15;;;;;;;;;;;6.90;81.70;;;;;;5015044;28;20428;-34
2023/01/15 07:26:41;;;;;;;;;;;6.80;81.90;;;;;;5014714;28;19909;-34
2023/01/15 07:29:06;;;;;;;;;;;6.80;82.20;;;;;;5015058;28;19979;-35
2023/01/15 07:31:32;;;;;;;;;;;6.70;82.40;;;;;;5014696;28;19910;-34
2023/01/15 07:33:58;;;;;;;;;;;6.70;82.50;;;;;;5014770;28;19999;-35
2023/01/15 07:36:24;;;;;;;;;;;6.70;82.80;;;;;;5014433;28;19922;-35
2023/01/15 07:38:49;;;;;;;;;;;6.60;82.90;;;;;;4996956;28;19909;-34
2023/01/15 07:49:46;;;;;;;;;;;6.60;83.10;;;;;;5014644;28;20443;-37
2023/01/15 07:52:12;;;;;;;;;;;6.50;82.90;;;;;;5013804;28;20355;-34
2023/01/15 07:54:37;;;;;;;;;;;6.50;82.90;;;;;;5013746;28;19932;-35
2023/01/15 07:57:03;;;;;;;;;;;6.50;82.80;;;;;;5014274;28;19910;-35
2023/01/15 07:59:29;;;;;;;;;;;6.50;82.80;;;;;;5014084;28;20297;-36
2023/01/15 08:01:54;;;;;;;;;;;6.50;82.60;;;;;;5013996;28;19987;-33
2023/01/15 08:04:20;;;;;;;;;;;6.50;82.50;;;;;;5014014;28;19909;-35
2023/01/15 08:06:45;;;;;;;;;;;6.50;82.60;;;;;;5014071;28;20310;-35
2023/01/15 08:09:11;;;;;;;;;;;6.50;82.40;;;;;;5014088;28;19909;-34
2023/01/15 08:17:04;;;;;;;;;;;6.60;81.90;;;;;;5014074;28;20032;-35
2023/01/15 08:19:30;;;;;;;;;;;6.60;82.00;;;;;;5013727;28;19949;-33
2023/01/15 08:21:56;;;;;;;;;;;6.60;82.10;;;;;;5013975;28;19916;-35
2023/01/15 08:24:24;;;;;;;;;;;6.60;82.10;;;;;;5013617;28;19960;-35
2023/01/15 08:26:51;;;;;;;;;;;6.50;82.00;;;;;;5013773;28;19910;-35
2023/01/15 08:29:16;;;;;;;;;;;6.60;82.30;;;;;;5013529;28;19960;-35
2023/01/15 08:31:41;;;;;;;;;;;6.50;82.10;;;;;;4995886;28;19991;-34
2023/01/15 08:34:07;;;;;;;;;;;6.60;82.10;;;;;;5013490;28;19914;-35
2023/01/15 08:36:33;;;;;;;;;;;6.60;82.10;;;;;;5013197;28;19922;-34
2023/01/15 08:38:59;;;;;;;;;;;6.60;82.10;;;;;;5013559;28;19956;-35
2023/01/15 08:41:24;;;;;;;;;;;6.60;82.00;;;;;;5013344;28;20023;-34
2023/01/15 08:43:50;;;;;;;;;;;6.60;81.60;;;;;;5013238;28;20384;-34
2023/01/15 08:46:15;;;;;;;;;;;6.60;81.50;;;;;;5013198;28;19909;-34
2023/01/15 08:48:41;;;;;;;;;;;6.70;81.30;;;;;;5013215;28;19984;-33
2023/01/15 08:51:10;;;;;;;;;;;6.70;81.30;;;;;;5013215;28;19913;-35
2023/01/15 08:53:36;;;;;;;;;;;6.70;81.00;;;;;;5013485;28;19909;-35
2023/01/15 08:56:01;;;;;;;;;;;6.80;81.00;;;;;;5012952;28;19920;-35
2023/01/15 08:58:31;;;;;;;;;;;6.80;81.60;;;;;;5012952;28;19913;-35
2023/01/15 09:01:03;;;;;;;;;;;6.80;80.50;;;;;;5012934;28;19996;-35
2023/01/15 09:03:28;;;;;;;;;;;6.80;80.60;;;;;;4995108;28;19910;-35
2023/01/15 09:05:56;;;;;;;;;;;6.80;80.50;;;;;;5012936;28;19924;-37
2023/01/15 09:08:22;;;;;;;;;;;6.80;80.30;;;;;;5013067;28;19932;-35
2023/01/15 09:10:47;;;;;;;;;;;6.90;79.90;;;;;;5012742;28;19910;-37
2023/01/15 09:13:13;;;;;;;;;;;6.90;79.50;;;;;;5012984;28;19910;-34
2023/01/15 09:15:38;;;;;;;;;;;6.90;79.20;;;;;;5012972;28;19914;-35
2023/01/15 09:18:04;;;;;;;;;;;6.90;78.90;;;;;;5012606;28;20254;-35
2023/01/15 09:20:29;;;;;;;;;;;6.90;79.40;;;;;;5012987;28;20004;-35
2023/01/15 09:22:55;;;;;;;;;;;6.90;79.30;;;;;;4994984;28;19909;-34
2023/01/15 09:25:22;;;;;;;;;;;7.00;78.70;;;;;;5012661;28;20316;-36
2023/01/15 09:27:48;;;;;;;;;;;7.00;79.20;;;;;;5012858;28;20273;-35
2023/01/15 09:30:19;;;;;;;;;;;7.00;78.40;;;;;;5012777;28;19909;-33
2023/01/15 09:32:45;;;;;;;;;;;7.00;78.60;;;;;;5012659;28;19909;-35
2023/01/15 09:35:10;;;;;;;;;;;7.00;78.50;;;;;;5012705;28;20377;-40
2023/01/15 09:37:36;;;;;;;;;;;7.00;78.10;;;;;;5012525;28;19921;-35
2023/01/15 09:40:02;;;;;;;;;;;7.00;78.00;;;;;;5012371;28;19916;-35
2023/01/15 09:42:47;;;;;;;;;;;7.10;77.90;;;;;;5012547;28;19960;-35
2023/01/15 09:45:16;;;;;;;;;;;7.10;78.20;;;;;;5012200;28;19975;-40
2023/01/15 09:47:44;;;;;;;;;;;7.20;78.10;;;;;;5012432;28;20443;-35
2023/01/15 09:50:36;;;;;;;;;;;7.20;77.50;;;;;;5012226;28;19909;-36
2023/01/15 09:53:20;;;;;;;;;;;7.20;77.60;;;;;;5015305;28;19953;-46
2023/01/15 09:55:46;;;;;;;;;;;7.20;77.30;;;;;;5014397;28;19913;-44
2023/01/15 09:58:13;;;;;;;;;;;7.20;76.50;;;;;;5012382;28;20004;-43
2023/01/15 10:00:39;;;;;;;;;;;7.20;76.90;;;;;;5011944;28;19909;-44
2023/01/15 10:03:11;;;;;;;;;;;7.30;77.00;;;;;;5012416;28;19909;-43
2023/01/15 10:05:45;;;;;;;;;;;7.30;77.30;;;;;;5012341;28;20000;-35
2023/01/15 10:08:17;;;;;;;;;;;7.40;76.90;;;;;;5012025;28;19910;-38
2023/01/15 10:10:45;;;;;;;;;;;7.40;76.90;;;;;;5012251;28;19910;-35
2023/01/15 10:13:33;;;;;;;;;;;7.40;76.00;;;;;;5012373;28;19909;-36
2023/01/15 10:15:59;;;;;;;;;;;7.40;76.20;;;;;;5004339;28;20021;-39
2023/01/15 10:18:25;;;;;;;;;;;7.50;76.80;;;;;;5015981;28;19963;-35
2023/01/15 10:21:07;;;;;;;;;;;7.50;76.30;;;;;;5015869;28;19910;-34
2023/01/15 10:23:34;;;;;;;;;;;7.50;76.60;;;;;;5016672;28;19914;-34
2023/01/15 10:26:15;;;;;;;;;;;7.60;76.90;;;;;;5016199;28;19914;-35
2023/01/15 10:28:59;;;;;;;;;;;7.60;76.30;;;;;;5016087;28;19916;-35
2023/01/15 10:31:30;;;;;;;;;;;7.70;76.00;;;;;;5016136;28;19910;-35
2023/01/15 10:34:14;;;;;;;;;;;7.70;75.40;;;;;;5015926;28;20365;-35
2023/01/15 10:36:49;;;;;;;;;;;7.70;76.00;;;;;;5015320;28;20457;-35
2023/01/15 10:39:22;;;;;;;;;;;7.80;76.10;;;;;;5015545;28;20361;-33
2023/01/15 10:41:51;;;;;;;;;;;7.80;75.90;;;;;;5015947;28;20353;-35
2023/01/15 10:44:23;;;;;;;;;;;7.90;75.70;;;;;;5015276;28;19993;-34
2023/01/15 10:46:52;;;;;;;;;;;7.90;75.40;;;;;;5015732;28;19936;-35
2023/01/15 10:49:18;;;;;;;;;;;8.00;75.30;;;;;;5015447;28;19983;-35
2023/01/15 10:51:49;;;;;;;;;;;8.00;74.20;;;;;;5015421;28;19910;-35
2023/01/15 10:54:23;;;;;;;;;;;8.00;74.70;;;;;;5015254;28;19909;-34
2023/01/15 10:57:10;;;;;;;;;;;8.10;74.00;;;;;;5015435;28;19920;-36
2023/01/15 10:59:42;;;;;;;;;;;8.20;74.50;;;;;;5015446;28;19909;-34
2023/01/15 11:02:27;;;;;;;;;;;8.20;73.60;;;;;;5015123;28;19910;-36
2023/01/15 11:04:53;;;;;;;;;;;8.30;73.50;;;;;;5015245;28;19917;-35
2023/01/15 11:07:20;;;;;;;;;;;8.30;72.30;;;;;;5015468;28;20254;-37
2023/01/15 11:09:45;;;;;;;;;;;8.30;73.60;;;;;;5015006;28;19964;-33
2023/01/15 11:20:47;;;;;;;;;;;8.40;71.40;;;;;;5015097;28;19936;-34
2023/01/15 11:23:14;;;;;;;;;;;8.40;72.30;;;;;;5014944;28;19917;-35
2023/01/15 11:25:47;;;;;;;;;;;8.40;72.40;;;;;;5014638;28;19910;-35
2023/01/15 11:28:14;;;;;;;;;;;8.40;71.80;;;;;;5014389;28;20381;-34
2023/01/15 11:30:40;;;;;;;;;;;8.40;72.40;;;;;;5014811;28;20047;-35
2023/01/15 11:33:20;;;;;;;;;;;8.40;72.80;;;;;;4997049;28;19933;-35
2023/01/15 11:35:50;;;;;;;;;;;8.40;72.00;;;;;;5014485;28;19928;-35
2023/01/15 11:38:15;;;;;;;;;;;8.40;72.90;;;;;;5014597;28;19914;-35
2023/01/15 11:40:53;;;;;;;;;;;8.40;73.00;;;;;;5016594;28;19960;-42
2023/01/15 11:52:00;;;;;;;;;;;8.50;73.90;;;;;;5014438;28;20280;-45
2023/01/15 11:54:26;;;;;;;;;;;8.40;73.60;;;;;;5014404;28;19913;-45
2023/01/15 11:56:53;;;;;;;;;;;8.40;74.20;;;;;;5014213;28;20177;-45
2023/01/15 11:59:19;;;;;;;;;;;8.40;74.00;;;;;;5014595;28;19913;-45
2023/01/15 12:01:56;;;;;;;;;;;8.30;74.60;;;;;;5014222;28;19913;-41
2023/01/15 12:04:25;;;;;;;;;;;8.20;76.10;;;;;;5013962;28;19964;-45
2023/01/15 12:06:50;;;;;;;;;;;8.10;77.00;;;;;;5013957;28;19968;-45
2023/01/15 12:09:24;;;;;;;;;;;8.00;77.90;;;;;;5013857;28;19914;-44
2023/01/15 12:11:55;;;;;;;;;;;7.90;78.20;;;;;;5013836;28;19948;-45
2023/01/15 12:14:39;;;;;;;;;;;7.90;78.40;;;;;;5014051;28;19914;-45
2023/01/15 12:17:19;;;;;;;;;;;7.80;78.20;;;;;;5013837;28;19917;-45
2023/01/15 12:20:01;;;;;;;;;;;7.80;79.00;;;;;;5013925;28;19914;-44
2023/01/15 12:22:29;;;;;;;;;;;7.80;79.10;;;;;;5013761;28;19963;-44
2023/01/15 12:25:13;;;;;;;;;;;7.80;79.00;;;;;;5013604;28;19921;-44
2023/01/15 12:27:46;;;;;;;;;;;7.90;78.70;;;;;;5013783;28;20266;-45
2023/01/15 12:30:12;;;;;;;;;;;8.00;77.50;;;;;;5013885;28;20007;-46
2023/01/15 12:32:41;;;;;;;;;;;8.00;77.80;;;;;;5013423;28;20392;-36
2023/01/15 12:35:14;;;;;;;;;;;8.10;77.50;;;;;;5013419;28;20519;-33
2023/01/15 12:37:51;;;;;;;;;;;8.10;77.20;;;;;;5013323;28;19921;-36
2023/01/15 12:40:20;;;;;;;;;;;8.10;77.50;;;;;;5012554;28;19923;-36
2023/01/15 12:45:35;;;;;;;;;;;8.00;78.10;;;;;;5013202;28;20003;-35
2023/01/15 12:48:04;;;;;;;;;;;8.00;79.00;;;;;;5013105;28;19964;-36
2023/01/15 12:50:47;;;;;;;;;;;7.90;79.50;;;;;;5013299;28;19997;-36
2023/01/15 12:53:22;;;;;;;;;;;7.80;79.90;;;;;;5013435;28;19914;-36
2023/01/15 12:55:53;;;;;;;;;;;7.80;79.70;;;;;;5013194;28;19918;-34
2023/01/15 12:58:32;;;;;;;;;;;7.70;79.90;;;;;;5013120;28;19914;-36
2023/01/15 13:01:02;;;;;;;;;;;7.70;80.20;;;;;;5012977;28;19914;-36
2023/01/15 13:03:46;;;;;;;;;;;7.60;80.60;;;;;;5012908;28;19921;-36
2023/01/15 13:06:13;;;;;;;;;;;7.60;81.20;;;;;;5012884;28;19913;-36
2023/01/15 13:08:45;;;;;;;;;;;7.50;81.20;;;;;;5013544;28;20308;-35
2023/01/15 13:11:11;;;;;;;;;;;7.50;81.30;;;;;;5013118;28;19913;-36
2023/01/15 13:13:38;;;;;;;;;;;7.60;81.60;;;;;;5012754;28;20494;-36
2023/01/15 13:16:22;;;;;;;;;;;7.60;81.50;;;;;;5012844;28;20365;-34
2023/01/15 13:19:26;;;;;;;;;;;7.60;81.20;;;;;;5012662;28;19963;-36
2023/01/15 13:21:54;;;;;;;;;;;7.70;81.30;;;;;;4951992;29;20011;-35
2023/01/15 13:24:31;;;;;;;;;;;7.70;81.10;;;;;;4935864;29;19914;-36
2023/01/15 13:27:15;;;;;;;;;;;7.80;80.60;;;;;;4985765;28;19953;-36
2023/01/15 13:29:40;;;;;;;;;;;7.80;80.00;;;;;;5012555;28;19913;-36
2023/01/15 13:32:13;;;;;;;;;;;7.80;80.10;;;;;;5012820;28;20056;-34
2023/01/15 13:34:45;;;;;;;;;;;7.80;80.00;;;;;;4994753;28;19920;-35
2023/01/15 13:37:17;;;;;;;;;;;7.80;80.40;;;;;;5012415;28;20328;-35
2023/01/15 13:39:44;;;;;;;;;;;7.70;80.90;;;;;;5012355;28;19976;-33
2023/01/15 13:42:39;;;;;;;;;;;7.70;81.10;;;;;;5012303;28;20270;-36
2023/01/15 13:45:14;;;;;;;;;;;7.70;81.20;;;;;;4982481;28;19913;-36
2023/01/15 13:47:44;;;;;;;;;;;7.70;80.80;;;;;;5012604;28;19936;-37
2023/01/15 13:50:18;;;;;;;;;;;7.70;80.50;;;;;;4994639;28;19992;-36
2023/01/15 13:52:44;;;;;;;;;;;7.70;80.70;;;;;;5012593;28;20203;-36
2023/01/15 13:55:10;;;;;;;;;;;7.70;80.80;;;;;;5012291;28;19927;-35
2023/01/15 13:57:36;;;;;;;;;;;7.70;81.10;;;;;;5012195;28;19957;-34
2023/01/15 14:00:05;;;;;;;;;;;7.70;81.20;;;;;;5012581;28;19965;-36
2023/01/15 14:02:31;;;;;;;;;;;7.60;81.00;;;;;;5011812;28;19948;-37
2023/01/15 14:04:57;;;;;;;;;;;7.60;81.00;;;;;;5012338;28;19932;-35
2023/01/15 14:07:31;;;;;;;;;;;7.60;81.30;;;;;;5012228;28;19910;-38
2023/01/15 14:10:15;;;;;;;;;;;7.60;81.70;;;;;;5012321;28;20348;-34
2023/01/15 14:12:55;;;;;;;;;;;7.60;82.00;;;;;;5012129;28;19972;-34
2023/01/15 14:15:39;;;;;;;;;;;7.50;82.30;;;;;;5011799;28;19920;-36
2023/01/15 14:18:20;;;;;;;;;;;7.50;82.80;;;;;;4994403;28;19916;-33
2023/01/15 14:20:55;;;;;;;;;;;7.50;83.20;;;;;;5011917;28;19996;-35
2023/01/15 14:23:29;;;;;;;;;;;7.50;83.40;;;;;;5012247;28;20337;-40
2023/01/15 14:25:55;;;;;;;;;;;7.40;83.40;;;;;;5011937;28;19909;-33
2023/01/15 14:28:23;;;;;;;;;;;7.40;83.40;;;;;;5012202;28;20008;-35
2023/01/15 14:30:49;;;;;;;;;;;7.40;83.30;;;;;;5011996;28;19921;-35
2023/01/15 14:33:17;;;;;;;;;;;7.40;83.30;;;;;;5012284;28;19909;-35
2023/01/15 14:35:44;;;;;;;;;;;7.40;83.10;;;;;;5011728;28;19928;-38
2023/01/15 14:38:15;;;;;;;;;;;7.40;83.00;;;;;;5011875;28;20007;-35
2023/01/15 14:40:51;;;;;;;;;;;7.40;82.90;;;;;;5011789;28;19964;-37
2023/01/15 14:43:18;;;;;;;;;;;7.40;82.90;;;;;;5011923;28;19952;-35
2023/01/15 14:45:46;;;;;;;;;;;7.40;82.80;;;;;;5011809;28;19913;-36
2023/01/15 14:48:17;;;;;;;;;;;7.50;82.60;;;;;;5011693;28;19910;-36
2023/01/15 14:50:43;;;;;;;;;;;7.50;82.20;;;;;;5011780;28;19997;-37
2023/01/15 14:53:15;;;;;;;;;;;7.40;81.90;;;;;;5012055;28;20008;-35
2023/01/15 14:55:52;;;;;;;;;;;7.40;81.90;;;;;;5012184;28;20281;-35
2023/01/15 14:58:32;;;;;;;;;;;7.40;82.30;;;;;;5011744;28;19964;-35
2023/01/15 15:01:00;;;;;;;;;;;7.40;82.80;;;;;;5011516;28;20012;-34
2023/01/15 15:03:32;;;;;;;;;;;7.40;83.10;;;;;;5014474;28;19916;-34
2023/01/15 15:05:58;;;;;;;;;;;7.40;83.30;;;;;;5015387;28;19964;-34
2023/01/15 15:08:27;;;;;;;;;;;7.40;83.30;;;;;;5015125;28;19909;-35
2023/01/15 15:10:54;;;;;;;;;;;7.40;83.30;;;;;;5015082;28;19913;-35
2023/01/15 15:13:26;;;;;;;;;;;7.50;83.10;;;;;;5015013;28;20315;-37
2023/01/15 15:16:11;;;;;;;;;;;7.50;83.00;;;;;;5015183;28;19968;-37
2023/01/15 15:18:44;;;;;;;;;;;7.50;82.80;;;;;;5014963;28;20016;-35
2023/01/15 15:21:25;;;;;;;;;;;7.50;82.50;;;;;;5015166;28;19909;-35
2023/01/15 15:24:09;;;;;;;;;;;7.50;82.60;;;;;;5014920;28;19924;-35
2023/01/15 15:26:35;;;;;;;;;;;7.50;82.70;;;;;;5015146;28;19910;-35
2023/01/15 15:29:06;;;;;;;;;;;7.40;82.60;;;;;;5014863;28;19910;-36
2023/01/15 15:31:36;;;;;;;;;;;7.40;82.70;;;;;;5014716;28;19909;-35
2023/01/15 15:34:01;;;;;;;;;;;7.30;82.90;;;;;;5014896;28;20000;-35